Accueil
METAR-TAF:

METAR-TAF

Aéroports :

Greenville, Caroline du Sud, États-Unis

latitude: 34-45-30N, longitude: 082-22-35W, altitude: 291 m

Observation

Le bulletin a été fait il y a 46 minutes, à 21:47 UTC
Vent 10 kt de ouest/sud-ouest avec des rafales jusqu'à 16 kt
Température 8°C
Humidité 57%
Pression 1017 hPa
Visibilité: 16.1 km
Nuages fragmentés à une hauteur de 3500 ft

METAR: KGYH 282147Z 25010G16KT 10SM BKN035 08/00 A3002

Heure: 17:33 (22:33 UTC)


TAF: absent

Observations et prévisions météorologiques de plus de 4000 aéroports (messages METAR et TAF).

Les stations disponibles sont représentées par des disques jaunes et rouges sur la carte.

Passer la souris dessus pour voir le nom de la station.

Cliquer dessus pour voir les observations et prévisions météorologiques.

Pour changer de carte: cliquez sur les boutons verts avec une croix noire pour zoomer, sur le bouton vert avec un tiret pour effectuer un zoom arrière, ou sur les flèches vertes pour les cartes adjacentes.


METAR-TAF: